Time;durP1;ratioP1;P1;durP2;ratioP2;P2;SDS_P1;SDS_P2;PMS_P1;PMS_P2;Temp;Humidity;BMP_temperature;BMP_pressure;BME280_temperature;BME280_humidity;BME280_pressure;Samples;Min_cycle;Max_cycle;Signal;HPM_P1;HPM_P2
2022/06/06 00:01:20;;;;;;;30.87;18.83;;;16.20;99.90;;;;;;5093149;28;20186;-42
2022/06/06 00:03:47;;;;;;;34.93;20.37;;;16.10;99.90;;;;;;5093257;28;20729;-44
2022/06/06 00:06:17;;;;;;;32.57;20.43;;;16.10;99.90;;;;;;5093353;28;20584;-40
2022/06/06 00:08:43;;;;;;;31.93;18.93;;;16.20;99.90;;;;;;5093757;28;20662;-43
2022/06/06 00:11:10;;;;;;;34.67;20.77;;;16.10;99.90;;;;;;5093055;28;20254;-41
2022/06/06 00:13:41;;;;;;;33.07;19.77;;;16.10;99.90;;;;;;5093426;28;20175;-42
2022/06/06 00:16:06;;;;;;;32.40;19.33;;;16.10;99.90;;;;;;5093370;28;20159;-43
2022/06/06 00:18:33;;;;;;;30.17;18.60;;;16.10;99.90;;;;;;5092876;28;20202;-41
2022/06/06 00:21:00;;;;;;;28.23;17.97;;;16.10;99.90;;;;;;5093058;28;20271;-41
2022/06/06 00:23:26;;;;;;;29.90;18.70;;;16.10;99.90;;;;;;5096826;28;20741;-42
2022/06/06 00:25:54;;;;;;;26.23;17.07;;;16.10;99.90;;;;;;5096845;28;20259;-41
2022/06/06 00:28:20;;;;;;;26.73;16.87;;;16.10;99.90;;;;;;5096779;28;20187;-42
2022/06/06 00:30:46;;;;;;;26.70;15.33;;;16.10;99.90;;;;;;5097022;28;20175;-41
2022/06/06 00:35:57;;;;;;;25.07;15.30;;;16.10;99.90;;;;;;5096984;28;20170;-42
2022/06/06 00:38:23;;;;;;;27.07;15.37;;;16.10;99.90;;;;;;5097220;28;20203;-42
2022/06/06 00:40:49;;;;;;;24.23;14.13;;;16.10;99.90;;;;;;5096895;28;20182;-42
2022/06/06 00:43:16;;;;;;;22.30;11.13;;;16.10;99.90;;;;;;5096680;28;20171;-43
2022/06/06 00:45:42;;;;;;;23.23;12.67;;;16.10;99.90;;;;;;5078344;28;20186;-41
2022/06/06 00:48:52;;;;;;;21.57;13.50;;;16.10;99.90;;;;;;5096925;28;20191;-43
2022/06/06 00:51:17;;;;;;;19.50;12.77;;;16.10;99.90;;;;;;5093538;28;20244;-43
2022/06/06 00:53:51;;;;;;;20.77;13.00;;;16.10;99.90;;;;;;5096709;28;20539;-43
2022/06/06 00:56:27;;;;;;;21.43;11.90;;;16.10;99.90;;;;;;5096667;28;20662;-46
2022/06/06 00:58:56;;;;;;;16.70;11.37;;;16.20;99.90;;;;;;5096245;28;20205;-44
2022/06/06 01:01:23;;;;;;;25.77;13.07;;;16.10;99.90;;;;;;5096157;28;20236;-47
2022/06/06 01:03:49;;;;;;;20.30;11.97;;;16.10;99.90;;;;;;5096055;28;20199;-41
2022/06/06 01:06:18;;;;;;;16.77;10.73;;;16.10;99.90;;;;;;5096210;28;20168;-40
2022/06/06 01:08:46;;;;;;;22.27;12.90;;;16.10;99.90;;;;;;5096017;28;20191;-39
2022/06/06 01:11:12;;;;;;;16.97;9.77;;;16.10;99.90;;;;;;5095975;28;20211;-39
2022/06/06 01:13:41;;;;;;;18.57;10.77;;;16.10;99.90;;;;;;5095952;28;20175;-41
2022/06/06 01:16:24;;;;;;;18.60;11.03;;;16.10;99.90;;;;;;5096181;28;20167;-41
2022/06/06 01:19:11;;;;;;;16.83;10.57;;;16.10;99.90;;;;;;5096048;28;20560;-41
2022/06/06 01:22:08;;;;;;;23.50;11.67;;;16.00;99.90;;;;;;5095923;28;20173;-40
2022/06/06 01:25:03;;;;;;;17.27;11.10;;;16.00;99.90;;;;;;5095922;28;20199;-41
2022/06/06 01:27:32;;;;;;;15.37;9.93;;;16.00;99.90;;;;;;5095814;28;20156;-39
2022/06/06 01:30:03;;;;;;;21.93;11.50;;;16.00;99.90;;;;;;5095912;28;20171;-38
2022/06/06 01:32:38;;;;;;;19.60;11.87;;;16.00;99.90;;;;;;5095557;28;20279;-40
2022/06/06 01:35:05;;;;;;;16.43;10.93;;;16.00;99.90;;;;;;5095094;28;20174;-39
2022/06/06 01:37:40;;;;;;;16.87;9.03;;;16.00;99.90;;;;;;5095358;28;20190;-41
2022/06/06 01:40:13;;;;;;;16.83;9.50;;;16.00;99.90;;;;;;5095340;28;20251;-39
2022/06/06 01:43:02;;;;;;;14.83;8.90;;;16.00;99.90;;;;;;5095567;28;20164;-39
2022/06/06 01:45:35;;;;;;;14.80;8.73;;;15.90;99.90;;;;;;5094398;28;20244;-44
2022/06/06 01:48:13;;;;;;;18.13;7.77;;;15.90;99.90;;;;;;5095617;28;20202;-46
2022/06/06 01:50:41;;;;;;;9.50;6.97;;;15.90;99.90;;;;;;5095413;28;20448;-45
2022/06/06 01:53:11;;;;;;;9.93;6.47;;;15.90;99.90;;;;;;5095325;28;20183;-45
2022/06/06 01:55:40;;;;;;;14.50;7.87;;;15.90;99.90;;;;;;5095811;28;20171;-45
2022/06/06 01:58:10;;;;;;;10.97;7.10;;;15.90;99.90;;;;;;5095054;28;20195;-46
2022/06/06 02:00:38;;;;;;;14.63;7.93;;;15.80;99.90;;;;;;5076736;28;20290;-45
2022/06/06 02:03:05;;;;;;;13.30;6.73;;;15.80;99.90;;;;;;5095086;28;20546;-45
2022/06/06 02:05:31;;;;;;;11.60;6.97;;;15.80;99.90;;;;;;5095454;28;20274;-45
2022/06/06 02:07:57;;;;;;;12.30;7.50;;;15.80;99.90;;;;;;5094808;28;20194;-45
2022/06/06 02:10:24;;;;;;;10.90;7.10;;;15.80;99.90;;;;;;5095122;28;20324;-43
2022/06/06 02:12:50;;;;;;;15.73;7.73;;;15.80;99.90;;;;;;5094833;28;20186;-45
2022/06/06 02:15:18;;;;;;;10.30;6.70;;;15.80;99.90;;;;;;5094781;28;20170;-45
2022/06/06 02:17:44;;;;;;;9.87;6.93;;;15.70;99.90;;;;;;5095004;28;20622;-44
2022/06/06 02:20:13;;;;;;;8.30;6.03;;;15.70;99.90;;;;;;5094882;28;20187;-44
2022/06/06 02:22:39;;;;;;;9.40;5.50;;;15.70;99.90;;;;;;5094804;28;20268;-45
2022/06/06 02:25:06;;;;;;;10.33;6.90;;;15.70;99.90;;;;;;5095247;28;20245;-45
2022/06/06 02:27:33;;;;;;;8.43;5.27;;;15.60;99.90;;;;;;5094467;28;20299;-46
2022/06/06 02:29:59;;;;;;;10.13;5.57;;;15.60;99.90;;;;;;5094608;28;20167;-45
2022/06/06 02:32:25;;;;;;;9.03;6.23;;;15.60;99.90;;;;;;5094402;28;20179;-44
2022/06/06 02:34:50;;;;;;;7.93;5.57;;;15.60;99.90;;;;;;5094642;28;20181;-46
2022/06/06 02:37:16;;;;;;;6.93;4.73;;;15.60;99.90;;;;;;5094342;28;20181;-45
2022/06/06 02:39:43;;;;;;;9.27;5.43;;;15.60;99.90;;;;;;5094235;28;20207;-45
2022/06/06 02:42:09;;;;;;;8.73;5.67;;;15.60;99.90;;;;;;5094524;28;20186;-45
2022/06/06 02:44:34;;;;;;;13.97;6.33;;;15.60;99.90;;;;;;5094010;28;20278;-45
2022/06/06 02:47:00;;;;;;;12.27;6.17;;;15.60;99.90;;;;;;5094159;28;20182;-45
2022/06/06 02:49:26;;;;;;;8.23;5.80;;;15.60;99.90;;;;;;5094139;28;20199;-45
2022/06/06 02:51:51;;;;;;;12.57;5.87;;;15.60;99.90;;;;;;5094077;28;20512;-44
2022/06/06 02:54:17;;;;;;;11.43;5.87;;;15.60;99.90;;;;;;5094051;28;20182;-45
2022/06/06 02:56:42;;;;;;;9.33;6.30;;;15.50;99.90;;;;;;5094101;28;20174;-44
2022/06/06 02:59:08;;;;;;;8.13;6.30;;;15.50;99.90;;;;;;5093920;28;20600;-45
2022/06/06 03:01:34;;;;;;;11.10;6.10;;;15.50;99.90;;;;;;5093827;28;20189;-45
2022/06/06 03:04:00;;;;;;;13.87;6.47;;;15.50;99.90;;;;;;5094101;28;20282;-45
2022/06/06 03:06:50;;;;;;;9.70;6.53;;;15.50;99.90;;;;;;5093826;28;20248;-43
2022/06/06 03:09:54;;;;;;;11.27;7.20;;;15.50;99.90;;;;;;5093661;28;20199;-44
2022/06/06 03:12:49;;;;;;;8.87;6.63;;;15.50;99.90;;;;;;5062926;28;20191;-45
2022/06/06 03:15:35;;;;;;;11.13;7.23;;;15.50;99.90;;;;;;5084504;28;20230;-45
2022/06/06 03:21:12;;;;;;;10.67;6.93;;;15.40;99.90;;;;;;5093656;28;20551;-45
2022/06/06 03:24:01;;;;;;;11.60;7.13;;;15.40;99.90;;;;;;5093618;28;20681;-47
2022/06/06 03:26:38;;;;;;;14.80;8.07;;;15.40;99.90;;;;;;5093524;28;20700;-46
2022/06/06 03:29:22;;;;;;;12.70;7.83;;;15.40;99.90;;;;;;5093959;28;20269;-46
2022/06/06 03:31:56;;;;;;;11.97;7.20;;;15.40;99.90;;;;;;5093521;28;20163;-48
2022/06/06 03:34:52;;;;;;;14.13;8.07;;;15.30;99.90;;;;;;5093618;28;20201;-47
2022/06/06 03:37:27;;;;;;;11.57;7.70;;;15.30;99.90;;;;;;5093716;28;20174;-47
2022/06/06 03:40:14;;;;;;;12.00;7.67;;;15.30;99.90;;;;;;5093344;28;20177;-46
2022/06/06 03:43:03;;;;;;;11.20;7.60;;;15.30;99.90;;;;;;5093534;28;20235;-47
2022/06/06 03:45:39;;;;;;;14.43;8.83;;;15.30;99.90;;;;;;5093390;28;20725;-41
2022/06/06 03:48:45;;;;;;;11.67;7.90;;;15.30;99.90;;;;;;5093675;28;20225;-41
2022/06/06 03:51:31;;;;;;;10.47;7.37;;;15.30;99.90;;;;;;5075297;28;20159;-40
2022/06/06 03:54:21;;;;;;;10.90;7.07;;;15.20;99.90;;;;;;5093301;28;20171;-41
2022/06/06 03:57:11;;;;;;;11.67;6.53;;;15.20;99.90;;;;;;5094793;28;20201;-42
2022/06/06 03:59:38;;;;;;;12.90;7.67;;;15.20;99.90;;;;;;5079073;28;20202;-42
2022/06/06 04:02:06;;;;;;;11.60;7.73;;;15.20;99.90;;;;;;5097567;28;20197;-43
2022/06/06 04:04:33;;;;;;;11.50;7.10;;;15.20;99.90;;;;;;5097578;28;20195;-42
2022/06/06 04:07:01;;;;;;;11.03;7.70;;;15.30;99.90;;;;;;5097231;28;20540;-39
2022/06/06 04:09:34;;;;;;;10.53;7.00;;;15.20;99.90;;;;;;5097379;28;20194;-42
2022/06/06 04:12:33;;;;;;;12.17;8.07;;;15.20;99.90;;;;;;5097569;28;20250;-43
2022/06/06 04:15:10;;;;;;;11.00;7.30;;;15.20;99.90;;;;;;5097424;28;20167;-41
2022/06/06 04:17:43;;;;;;;12.70;8.07;;;15.10;99.90;;;;;;5097299;28;20166;-41
2022/06/06 04:20:23;;;;;;;10.90;7.30;;;15.10;99.90;;;;;;5097377;28;20166;-43
2022/06/06 04:23:06;;;;;;;12.17;7.63;;;15.10;99.90;;;;;;5097279;28;20255;-42
2022/06/06 04:25:56;;;;;;;11.00;7.63;;;15.10;99.90;;;;;;5097348;28;20243;-41
2022/06/06 04:28:26;;;;;;;12.03;7.70;;;15.10;99.90;;;;;;5096939;28;20534;-41
2022/06/06 04:31:17;;;;;;;11.77;7.60;;;15.10;99.90;;;;;;5097188;28;20761;-42
2022/06/06 04:34:09;;;;;;;12.13;8.13;;;15.10;99.90;;;;;;5097626;28;20171;-43
2022/06/06 04:36:42;;;;;;;10.83;7.80;;;15.10;99.90;;;;;;5096711;28;20596;-41
2022/06/06 04:39:52;;;;;;;11.60;7.60;;;15.10;99.90;;;;;;5097036;28;20736;-41
2022/06/06 04:42:41;;;;;;;9.77;6.90;;;15.10;99.90;;;;;;5096559;28;20174;-43
2022/06/06 04:45:24;;;;;;;10.63;7.07;;;15.10;99.90;;;;;;5085766;28;20279;-42
2022/06/06 04:47:51;;;;;;;9.00;6.77;;;15.00;99.90;;;;;;5096979;28;20198;-40
2022/06/06 04:50:20;;;;;;;12.03;6.50;;;15.00;99.90;;;;;;5078226;28;20213;-43
2022/06/06 04:52:59;;;;;;;9.00;5.90;;;15.00;99.90;;;;;;5096824;28;20182;-43
2022/06/06 04:55:26;;;;;;;7.30;5.03;;;15.00;99.90;;;;;;5096688;28;20657;-41
2022/06/06 04:57:55;;;;;;;4.83;3.83;;;14.90;99.90;;;;;;5078333;28;20542;-41
2022/06/06 05:00:24;;;;;;;7.60;5.50;;;14.90;99.90;;;;;;5096237;28;20194;-42
2022/06/06 05:02:50;;;;;;;8.20;5.70;;;15.00;99.90;;;;;;5078140;28;20270;-41
2022/06/06 05:05:15;;;;;;;8.23;4.90;;;14.90;99.90;;;;;;5096223;28;20297;-41
2022/06/06 05:07:54;;;;;;;8.17;4.80;;;15.00;99.90;;;;;;5095429;28;20167;-42
2022/06/06 05:10:38;;;;;;;6.27;4.50;;;15.00;99.90;;;;;;5096357;28;20167;-44
2022/06/06 05:13:32;;;;;;;5.33;4.57;;;14.90;99.90;;;;;;5096266;28;20246;-41
2022/06/06 05:16:10;;;;;;;7.73;4.67;;;14.90;99.90;;;;;;5096461;28;20584;-42
2022/06/06 05:19:16;;;;;;;6.67;4.40;;;14.90;99.90;;;;;;5096044;28;20213;-44
2022/06/06 05:22:03;;;;;;;7.90;4.77;;;14.80;99.90;;;;;;5055871;28;20239;-38
2022/06/06 05:24:28;;;;;;;7.17;4.47;;;14.90;99.90;;;;;;5096251;28;20187;-42
2022/06/06 05:27:12;;;;;;;6.97;4.63;;;14.90;99.90;;;;;;5096135;28;20182;-40
2022/06/06 05:30:01;;;;;;;10.47;4.60;;;15.00;99.90;;;;;;5095854;28;20223;-42
2022/06/06 05:33:05;;;;;;;8.67;4.33;;;15.10;99.90;;;;;;5096061;28;20252;-41
2022/06/06 05:35:49;;;;;;;8.97;4.47;;;15.10;99.90;;;;;;5095878;28;20661;-43
2022/06/06 05:38:36;;;;;;;7.50;4.30;;;15.20;99.90;;;;;;5095468;28;20598;-43
2022/06/06 05:41:23;;;;;;;6.20;4.07;;;15.30;99.90;;;;;;5095727;28;20174;-41
2022/06/06 05:44:27;;;;;;;8.53;4.20;;;15.30;99.90;;;;;;5095593;28;20194;-41
2022/06/06 05:47:10;;;;;;;7.10;4.00;;;15.50;99.90;;;;;;5095752;28;20175;-42
2022/06/06 05:49:59;;;;;;;6.10;4.63;;;15.50;99.90;;;;;;5095812;28;20670;-40
2022/06/06 05:52:44;;;;;;;4.80;3.90;;;15.60;99.90;;;;;;5095596;28;20238;-43
2022/06/06 05:55:34;;;;;;;6.27;4.10;;;15.70;99.90;;;;;;5095651;28;20233;-41
2022/06/06 05:58:26;;;;;;;4.23;3.33;;;15.70;99.90;;;;;;5095011;28;20772;-42
2022/06/06 06:01:17;;;;;;;9.20;3.60;;;15.70;99.90;;;;;;5063878;28;20214;-42
2022/06/06 06:03:54;;;;;;;4.70;3.00;;;15.80;99.90;;;;;;5095213;28;20206;-42
2022/06/06 06:06:33;;;;;;;10.83;2.90;;;15.90;99.90;;;;;;5095316;28;20155;-42
2022/06/06 06:09:20;;;;;;;5.70;2.80;;;16.00;99.90;;;;;;5076869;28;20285;-42
2022/06/06 06:12:06;;;;;;;4.90;3.33;;;16.10;99.90;;;;;;5095073;28;20167;-41
2022/06/06 06:15:02;;;;;;;4.10;2.90;;;16.30;99.90;;;;;;5095347;28;20170;-43
2022/06/06 06:17:31;;;;;;;5.77;2.60;;;16.50;99.90;;;;;;5095097;28;20521;-43
2022/06/06 06:20:10;;;;;;;4.87;2.30;;;16.60;99.90;;;;;;5094435;28;20780;-41
2022/06/06 06:22:43;;;;;;;5.37;2.40;;;16.70;99.90;;;;;;5094965;28;20190;-42
2022/06/06 06:25:10;;;;;;;3.83;2.53;;;16.90;99.90;;;;;;5095027;28;20276;-44
2022/06/06 06:27:37;;;;;;;2.77;1.53;;;17.10;99.90;;;;;;5094788;28;20183;-42
2022/06/06 06:30:07;;;;;;;4.43;2.27;;;17.20;99.90;;;;;;5094628;28;20187;-43
2022/06/06 06:32:57;;;;;;;3.70;2.10;;;17.40;99.90;;;;;;5094849;28;20550;-42
2022/06/06 06:35:53;;;;;;;2.23;1.70;;;17.50;99.90;;;;;;5094905;28;20194;-43
2022/06/06 06:38:40;;;;;;;3.90;1.70;;;17.60;99.90;;;;;;5094319;28;20202;-41
2022/06/06 06:41:29;;;;;;;4.67;1.53;;;17.70;99.90;;;;;;5094709;28;20642;-43
2022/06/06 06:44:08;;;;;;;1.60;1.40;;;17.90;99.90;;;;;;5094528;28;20194;-43
2022/06/06 06:46:43;;;;;;;1.87;1.63;;;18.00;99.90;;;;;;5094517;28;20159;-43
2022/06/06 06:49:36;;;;;;;1.70;1.50;;;18.10;99.90;;;;;;5094476;28;20217;-43
2022/06/06 06:52:29;;;;;;;3.07;1.40;;;18.20;99.90;;;;;;5094446;28;20194;-43
2022/06/06 06:55:20;;;;;;;2.33;1.30;;;18.30;99.90;;;;;;5094226;28;20174;-41
2022/06/06 06:57:48;;;;;;;1.53;1.33;;;18.40;99.90;;;;;;5094137;28;20178;-41
2022/06/06 07:00:21;;;;;;;3.47;1.90;;;18.50;99.90;;;;;;5093876;28;20195;-41
2022/06/06 07:08:45;;;;;;;2.57;1.13;;;18.70;99.90;;;;;;5094418;28;20206;-43
2022/06/06 07:11:44;;;;;;;1.17;0.90;;;18.80;99.90;;;;;;5094082;28;20167;-43
2022/06/06 07:14:43;;;;;;;1.57;1.23;;;18.90;99.90;;;;;;5094160;28;20640;-43
2022/06/06 07:17:11;;;;;;;3.60;1.00;;;18.90;99.90;;;;;;5093760;28;20171;-44
2022/06/06 07:19:42;;;;;;;3.47;1.33;;;18.90;99.90;;;;;;5093514;28;20678;-44
2022/06/06 07:22:09;;;;;;;1.13;1.00;;;19.00;99.90;;;;;;5093725;28;20657;-43
2022/06/06 07:24:35;;;;;;;4.80;1.10;;;19.10;99.90;;;;;;5093781;28;20242;-44
2022/06/06 07:27:02;;;;;;;1.50;1.10;;;19.10;99.90;;;;;;5093533;28;20199;-42
2022/06/06 07:29:27;;;;;;;1.47;0.90;;;19.30;99.90;;;;;;5093597;28;20278;-43
2022/06/06 07:32:37;;;;;;;1.20;0.80;;;19.40;99.90;;;;;;5092648;28;20199;-41
2022/06/06 07:35:40;;;;;;;2.07;0.80;;;19.60;99.90;;;;;;5075397;28;20178;-44
2022/06/06 07:38:32;;;;;;;2.30;1.10;;;19.70;99.90;;;;;;5062258;28;20264;-43
2022/06/06 07:41:11;;;;;;;1.33;1.07;;;19.80;99.90;;;;;;5082527;28;20191;-43
2022/06/06 07:44:18;;;;;;;3.07;1.10;;;19.90;99.90;;;;;;5093316;28;20163;-41
2022/06/06 07:47:00;;;;;;;5.60;1.10;;;19.90;99.90;;;;;;5093335;28;20539;-41
2022/06/06 07:49:33;;;;;;;1.37;0.90;;;20.00;99.90;;;;;;5093326;28;20198;-42
2022/06/06 07:52:17;;;;;;;1.47;0.73;;;20.10;99.90;;;;;;5093333;28;20540;-42
2022/06/06 07:55:09;;;;;;;1.67;0.90;;;20.20;99.90;;;;;;5094392;28;20632;-43
2022/06/06 07:58:14;;;;;;;1.00;0.80;;;20.30;99.90;;;;;;5093336;28;20177;-43
2022/06/06 08:00:40;;;;;;;0.70;0.60;;;20.40;99.90;;;;;;5026621;28;20226;-42
2022/06/06 08:03:24;;;;;;;2.40;0.90;;;20.40;99.90;;;;;;5093334;28;20187;-44
2022/06/06 08:06:10;;;;;;;0.80;0.60;;;20.50;99.90;;;;;;5093339;28;20185;-44
2022/06/06 08:08:45;;;;;;;2.70;0.70;;;20.60;99.90;;;;;;5075004;28;20218;-43
2022/06/06 08:11:15;;;;;;;0.80;0.77;;;20.60;99.90;;;;;;5093378;28;20188;-43
2022/06/06 08:13:54;;;;;;;2.57;0.57;;;20.50;99.90;;;;;;5075076;28;20286;-42
2022/06/06 08:16:23;;;;;;;1.47;0.63;;;20.50;99.90;;;;;;5075136;28;20266;-42
2022/06/06 08:19:25;;;;;;;1.33;0.80;;;20.40;99.90;;;;;;5093136;28;20248;-43
2022/06/06 08:21:51;;;;;;;0.60;0.60;;;20.60;99.90;;;;;;5093119;28;20658;-42
2022/06/06 08:24:30;;;;;;;0.67;0.63;;;20.90;99.90;;;;;;5092979;28;20282;-42
2022/06/06 08:26:59;;;;;;;2.73;0.90;;;21.10;99.90;;;;;;5093235;28;20232;-44
2022/06/06 08:29:26;;;;;;;1.03;0.80;;;21.30;99.90;;;;;;5093073;28;20198;-44
2022/06/06 08:31:51;;;;;;;1.43;0.87;;;21.40;99.90;;;;;;5093226;28;20175;-45
2022/06/06 08:34:17;;;;;;;1.97;0.77;;;21.30;99.90;;;;;;5092885;28;20197;-42
2022/06/06 08:37:10;;;;;;;1.90;1.07;;;21.40;99.90;;;;;;5093019;28;20582;-44
2022/06/06 08:40:06;;;;;;;3.60;0.67;;;21.50;99.90;;;;;;5092989;28;20682;-44
2022/06/06 08:43:00;;;;;;;1.03;0.80;;;21.50;99.90;;;;;;5075640;28;20187;-44
2022/06/06 08:45:50;;;;;;;3.07;1.00;;;21.50;99.90;;;;;;5061830;28;20583;-42
2022/06/06 08:48:38;;;;;;;1.57;0.70;;;21.50;99.90;;;;;;5096839;28;20251;-45
2022/06/06 08:51:47;;;;;;;4.00;0.70;;;21.50;99.90;;;;;;5096448;28;20171;-44
2022/06/06 08:54:21;;;;;;;0.60;0.60;;;21.50;99.90;;;;;;5096500;28;20502;-44
2022/06/06 08:57:08;;;;;;;1.53;0.70;;;21.50;99.90;;;;;;5096458;28;20167;-42
2022/06/06 08:59:48;;;;;;;1.07;0.80;;;21.60;99.90;;;;;;5096164;28;20195;-43
2022/06/06 09:03:01;;;;;;;1.30;0.63;;;21.60;99.90;;;;;;5096885;28;20166;-43
2022/06/06 09:05:53;;;;;;;0.73;0.70;;;21.40;99.90;;;;;;5014499;28;20217;-44
2022/06/06 09:08:37;;;;;;;2.20;0.80;;;21.20;99.90;;;;;;5094411;28;20578;-42
2022/06/06 09:11:21;;;;;;;0.57;0.57;;;21.10;99.90;;;;;;5096476;28;20631;-45
2022/06/06 09:14:15;;;;;;;0.60;0.60;;;21.10;99.90;;;;;;5096047;28;20201;-42
2022/06/06 09:16:53;;;;;;;0.87;0.70;;;21.10;99.90;;;;;;5096355;28;20167;-41
2022/06/06 09:19:32;;;;;;;3.10;0.70;;;21.10;99.90;;;;;;5096208;28;20199;-41
2022/06/06 09:22:07;;;;;;;0.97;0.60;;;21.00;99.90;;;;;;5096087;28;20246;-41
2022/06/06 09:24:50;;;;;;;2.20;1.03;;;21.10;99.90;;;;;;5096112;28;20217;-43
2022/06/06 09:27:44;;;;;;;1.37;0.77;;;21.30;99.90;;;;;;5096909;28;20590;-43
2022/06/06 09:30:22;;;;;;;11.07;1.00;;;21.40;99.90;;;;;;5096698;28;20565;-44
2022/06/06 09:33:03;;;;;;;0.63;0.53;;;21.50;99.90;;;;;;5077569;28;20177;-42
2022/06/06 09:35:34;;;;;;;1.50;0.70;;;21.60;99.90;;;;;;5096197;28;20737;-43
2022/06/06 09:38:27;;;;;;;1.03;0.60;;;21.60;99.90;;;;;;5095549;28;20327;-45
2022/06/06 09:41:36;;;;;;;1.93;0.70;;;21.70;99.90;;;;;;5095509;28;20183;-43
2022/06/06 09:44:10;;;;;;;1.07;0.63;;;21.50;99.90;;;;;;5095709;28;20202;-46
2022/06/06 09:47:13;;;;;;;1.40;0.80;;;21.50;99.90;;;;;;5095511;28;20162;-44
2022/06/06 09:50:16;;;;;;;2.53;0.93;;;21.50;99.90;;;;;;5095623;28;20549;-43
2022/06/06 09:53:19;;;;;;;1.47;0.60;;;21.50;99.90;;;;;;5095660;28;20179;-43
2022/06/06 09:59:02;;;;;;;0.70;0.50;;;21.50;99.90;;;;;;5095163;28;20209;-45
2022/06/06 10:02:08;;;;;;;0.80;0.50;;;21.60;99.90;;;;;;5095043;28;20236;-42
2022/06/06 10:05:24;;;;;;;1.37;0.70;;;21.80;99.90;;;;;;5095557;28;20191;-44
2022/06/06 10:08:27;;;;;;;1.47;0.60;;;21.90;99.90;;;;;;5096004;28;20186;-48
2022/06/06 10:11:06;;;;;;;2.63;0.60;;;22.00;99.90;;;;;;5095502;28;20236;-47
2022/06/06 10:13:49;;;;;;;0.60;0.40;;;22.00;99.90;;;;;;5094982;28;20163;-49
2022/06/06 10:16:48;;;;;;;2.00;0.43;;;22.00;99.90;;;;;;5094926;28;20160;-47
2022/06/06 10:19:35;;;;;;;1.90;0.67;;;22.00;99.90;;;;;;5094868;28;20583;-47
2022/06/06 10:22:23;;;;;;;0.97;0.60;;;22.00;99.90;;;;;;5094998;28;20191;-48
2022/06/06 10:25:19;;;;;;;0.50;0.50;;;21.90;99.90;;;;;;5095042;28;20205;-46
2022/06/06 10:27:55;;;;;;;3.50;0.60;;;21.90;99.90;;;;;;5094765;28;20155;-46
2022/06/06 10:30:28;;;;;;;0.50;0.50;;;21.80;99.90;;;;;;5094665;28;20167;-47
2022/06/06 10:33:12;;;;;;;1.03;0.70;;;21.80;99.90;;;;;;5094824;28;20163;-47
2022/06/06 10:36:06;;;;;;;0.93;0.80;;;21.70;99.90;;;;;;5094632;28;20159;-49
2022/06/06 10:38:59;;;;;;;0.97;0.63;;;21.60;99.90;;;;;;5094545;28;20199;-47
2022/06/06 10:41:34;;;;;;;1.20;0.60;;;21.70;99.90;;;;;;5094747;28;20179;-47
2022/06/06 10:44:15;;;;;;;1.10;0.70;;;21.60;99.90;;;;;;5094779;28;20628;-48
2022/06/06 10:47:04;;;;;;;2.37;0.60;;;21.60;99.90;;;;;;5094227;28;20151;-47
2022/06/06 10:49:29;;;;;;;0.80;0.63;;;21.80;99.90;;;;;;5094471;28;20686;-48
2022/06/06 10:52:36;;;;;;;1.80;0.60;;;21.80;99.90;;;;;;5094083;28;20179;-48
2022/06/06 10:55:42;;;;;;;1.03;0.73;;;21.80;99.90;;;;;;5094669;28;20230;-47
2022/06/06 10:58:26;;;;;;;3.20;0.73;;;21.70;99.90;;;;;;5083754;28;20202;-47
2022/06/06 11:01:42;;;;;;;3.30;0.77;;;21.60;99.90;;;;;;5093823;28;20194;-47
2022/06/06 11:04:16;;;;;;;2.20;0.80;;;21.60;99.90;;;;;;5059440;28;20687;-45
2022/06/06 11:06:53;;;;;;;1.60;0.90;;;21.20;99.90;;;;;;5093877;28;20630;-49
2022/06/06 11:09:35;;;;;;;1.33;0.90;;;20.90;99.90;;;;;;5093771;28;20195;-48
2022/06/06 11:12:11;;;;;;;1.37;0.90;;;20.70;99.90;;;;;;5093780;28;20612;-48
2022/06/06 11:14:40;;;;;;;2.27;0.87;;;20.70;99.90;;;;;;5094255;28;20174;-48
2022/06/06 11:17:36;;;;;;;3.70;0.70;;;20.70;99.90;;;;;;5075562;28;20178;-47
2022/06/06 11:20:21;;;;;;;0.60;0.50;;;20.80;99.90;;;;;;5093889;28;20175;-47
2022/06/06 11:23:12;;;;;;;1.17;0.70;;;20.90;99.90;;;;;;5093678;28;20195;-47
2022/06/06 11:26:06;;;;;;;0.70;0.70;;;21.10;99.90;;;;;;5093796;28;20190;-46
2022/06/06 11:29:01;;;;;;;1.70;0.90;;;21.20;99.90;;;;;;5093619;28;20194;-48
2022/06/06 11:31:45;;;;;;;4.37;0.90;;;21.40;99.90;;;;;;5057835;28;20335;-48
2022/06/06 11:34:37;;;;;;;0.93;0.80;;;21.60;99.90;;;;;;5093737;28;20519;-46
2022/06/06 11:37:21;;;;;;;1.00;0.90;;;21.80;99.90;;;;;;5093707;28;20171;-47
2022/06/06 11:40:03;;;;;;;7.97;0.90;;;21.90;99.90;;;;;;5093339;28;20194;-47
2022/06/06 11:42:52;;;;;;;3.07;0.83;;;22.00;99.90;;;;;;5093681;28;20527;-49
2022/06/06 11:45:53;;;;;;;1.10;0.80;;;22.20;99.90;;;;;;5093250;28;20291;-48
2022/06/06 11:48:39;;;;;;;4.83;1.10;;;22.20;99.90;;;;;;5093040;28;20206;-46
2022/06/06 11:51:26;;;;;;;1.03;0.70;;;22.40;99.90;;;;;;5093114;28;20642;-48
2022/06/06 11:54:29;;;;;;;0.93;0.70;;;22.40;99.90;;;;;;5093483;28;20179;-47
2022/06/06 11:57:08;;;;;;;2.33;0.70;;;22.50;99.90;;;;;;5093309;28;20202;-47
2022/06/06 12:00:05;;;;;;;1.13;0.80;;;22.50;99.90;;;;;;5093274;28;20195;-48
2022/06/06 12:03:02;;;;;;;1.87;0.80;;;22.60;99.90;;;;;;5093192;28;20655;-48
2022/06/06 12:05:56;;;;;;;0.60;0.60;;;22.60;99.90;;;;;;5093616;28;20194;-47
2022/06/06 12:08:24;;;;;;;2.07;0.60;;;22.70;99.90;;;;;;5093304;28;20264;-48
2022/06/06 12:10:50;;;;;;;0.70;0.70;;;22.80;99.90;;;;;;5093600;28;20171;-49
2022/06/06 12:13:32;;;;;;;1.60;0.63;;;22.70;99.90;;;;;;5093036;28;20590;-47
2022/06/06 12:16:16;;;;;;;1.33;0.80;;;22.60;99.90;;;;;;5093624;28;20159;-49
2022/06/06 12:18:59;;;;;;;0.50;0.50;;;22.40;99.90;;;;;;5096084;28;20191;-48
2022/06/06 12:21:53;;;;;;;0.67;0.60;;;22.30;99.90;;;;;;5097105;28;20163;-49
2022/06/06 12:24:38;;;;;;;0.60;0.60;;;22.40;99.90;;;;;;5097274;28;20270;-47
2022/06/06 12:27:25;;;;;;;1.47;0.83;;;22.40;99.90;;;;;;5096995;28;20213;-48
2022/06/06 12:30:27;;;;;;;3.60;0.90;;;22.60;99.90;;;;;;5097214;28;20198;-48
2022/06/06 12:33:03;;;;;;;1.10;0.73;;;22.70;99.90;;;;;;5078589;28;20727;-47
2022/06/06 12:35:46;;;;;;;1.00;0.60;;;22.80;99.90;;;;;;5097494;28;20548;-48
2022/06/06 12:38:18;;;;;;;2.43;1.30;;;23.00;99.90;;;;;;5096663;28;20568;-48
2022/06/06 12:41:04;;;;;;;0.87;0.70;;;23.10;99.90;;;;;;5096686;28;20291;-48
2022/06/06 12:43:48;;;;;;;0.60;0.60;;;23.30;99.90;;;;;;5097030;28;20212;-48
2022/06/06 12:46:42;;;;;;;1.23;0.57;;;23.30;99.90;;;;;;5096718;28;20654;-49
2022/06/06 12:49:29;;;;;;;4.57;0.57;;;23.40;99.90;;;;;;5096646;28;20658;-49
2022/06/06 12:52:07;;;;;;;0.73;0.50;;;23.40;99.90;;;;;;5096615;28;20532;-48
2022/06/06 12:58:07;;;;;;;1.53;0.70;;;23.30;99.90;;;;;;5096808;28;20177;-48
2022/06/06 13:03:54;;;;;;;0.83;0.50;;;23.40;99.90;;;;;;5097021;28;20190;-48
2022/06/06 13:06:43;;;;;;;1.00;0.60;;;23.30;99.90;;;;;;5096250;28;20174;-48
2022/06/06 13:09:12;;;;;;;0.57;0.50;;;23.40;99.90;;;;;;5096280;28;20570;-48
2022/06/06 13:12:06;;;;;;;0.80;0.70;;;23.60;99.90;;;;;;5096192;28;20171;-48
2022/06/06 13:14:53;;;;;;;2.87;0.60;;;23.70;99.90;;;;;;5096102;28;20171;-49
2022/06/06 13:18:01;;;;;;;3.07;0.60;;;23.70;99.90;;;;;;5096322;28;20175;-48
2022/06/06 13:20:43;;;;;;;1.53;0.73;;;23.80;99.90;;;;;;5095877;28;20186;-48
2022/06/06 13:23:21;;;;;;;2.63;0.67;;;23.90;99.90;;;;;;5096213;28;20642;-49
2022/06/06 13:25:48;;;;;;;1.63;0.60;;;24.00;99.90;;;;;;5096121;28;20190;-47
2022/06/06 13:28:25;;;;;;;1.73;0.90;;;24.10;99.90;;;;;;5095726;28;20187;-48
2022/06/06 13:30:59;;;;;;;2.33;0.50;;;24.10;99.90;;;;;;5095340;28;20610;-48
2022/06/06 13:33:36;;;;;;;1.07;0.60;;;24.10;99.90;;;;;;5096230;28;20167;-48
2022/06/06 13:36:34;;;;;;;0.97;0.60;;;24.00;99.90;;;;;;5095935;28;20167;-48
2022/06/06 13:39:18;;;;;;;3.40;0.80;;;24.10;99.90;;;;;;5096263;28;20569;-49
2022/06/06 13:41:57;;;;;;;1.20;0.77;;;24.10;99.90;;;;;;5096221;28;20477;-49
2022/06/06 13:44:45;;;;;;;1.00;0.80;;;24.00;99.90;;;;;;5095801;28;20607;-48
2022/06/06 13:47:41;;;;;;;0.63;0.63;;;23.80;99.90;;;;;;5095919;28;20191;-48
2022/06/06 13:50:31;;;;;;;2.33;0.60;;;23.80;99.90;;;;;;5096297;28;20167;-49
2022/06/06 13:53:24;;;;;;;1.37;0.70;;;23.80;99.90;;;;;;5095760;28;20231;-48
2022/06/06 13:56:09;;;;;;;1.23;0.60;;;23.80;99.90;;;;;;5095592;28;20254;-48
2022/06/06 13:58:49;;;;;;;3.00;0.60;;;23.80;99.90;;;;;;5095526;28;20278;-48
2022/06/06 14:01:24;;;;;;;1.20;0.60;;;23.70;99.90;;;;;;5095261;28;20281;-50
2022/06/06 14:04:10;;;;;;;1.10;0.70;;;23.50;99.90;;;;;;5095870;28;20665;-46
2022/06/06 14:06:38;;;;;;;2.33;0.73;;;23.60;99.90;;;;;;5095596;28;20529;-46
2022/06/06 14:09:04;;;;;;;1.03;0.63;;;23.90;99.90;;;;;;5095161;28;20198;-47
2022/06/06 14:11:44;;;;;;;0.60;0.50;;;24.10;99.90;;;;;;5095059;28;20605;-47
2022/06/06 14:14:15;;;;;;;10.13;0.87;;;24.10;99.90;;;;;;5095161;28;20500;-48